Terminal Aerodrome Forecast
Issued by NWS Newport/Morehead City, NC

Home | Current Version | Previous Version | Text Only | Print | Product List | Glossary On
Versions: 1 2 3 4 5 6 7 8 9 10 11 12 13 14 15 16
044
FTUS42 KMHX 071138
TAFEWN
TAF
KEWN 071138Z 0712/0812 01017G24KT 6SM RA OVC040
     FM071600 01020G30KT 5SM RA SCT009 OVC015
     FM080100 35015G25KT 6SM -RA SCT015 BKN035
     FM080600 33012G20KT P6SM SCT070=

USA.gov is the U.S. government's official web portal to all federal, state and local government web resources and services.